createdAt,value
2018-12-12T00:01:50.378Z,50.83
2018-12-12T00:04:21.516Z,44.00
2018-12-12T00:06:51.722Z,49.43
2018-12-12T00:09:21.559Z,60.53
2018-12-12T00:11:51.546Z,70.83
2018-12-12T00:14:21.251Z,49.63
2018-12-12T00:16:53.281Z,53.43
2018-12-12T00:19:29.277Z,94.17
2018-12-12T00:22:04.119Z,45.37
2018-12-12T00:24:36.150Z,52.97
2018-12-12T00:27:07.015Z,50.53
2018-12-12T00:29:36.856Z,53.33
2018-12-12T00:32:07.948Z,44.97
2018-12-12T00:34:38.874Z,46.33
2018-12-12T00:37:09.691Z,52.57
2018-12-12T00:39:39.437Z,77.60
2018-12-12T00:42:09.340Z,52.20
2018-12-12T00:44:38.921Z,47.77
2018-12-12T00:47:08.658Z,45.63
2018-12-12T00:49:38.661Z,62.77
2018-12-12T00:52:08.360Z,62.77
2018-12-12T00:54:48.285Z,56.43
2018-12-12T00:57:21.262Z,63.63
2018-12-12T00:59:55.951Z,51.20
2018-12-12T01:02:30.391Z,49.27
2018-12-12T01:05:01.640Z,54.00
2018-12-12T01:07:35.282Z,48.03
2018-12-12T01:10:06.500Z,52.13
2018-12-12T01:12:39.410Z,66.93
2018-12-12T01:15:09.157Z,47.97
2018-12-12T01:17:39.080Z,53.33
2018-12-12T01:20:08.838Z,49.10
2018-12-12T01:22:39.726Z,62.77
2018-12-12T01:25:09.313Z,50.87
2018-12-12T01:27:39.151Z,64.60
2018-12-12T01:30:11.961Z,59.53
2018-12-12T01:32:46.313Z,54.10
2018-12-12T01:35:16.073Z,50.60
2018-12-12T01:37:45.771Z,52.70
2018-12-12T01:40:16.760Z,54.30
2018-12-12T01:42:46.394Z,47.60
2018-12-12T01:45:16.351Z,57.03
2018-12-12T01:47:46.412Z,57.17
2018-12-12T01:50:18.708Z,68.57
2018-12-12T01:52:53.363Z,57.73
2018-12-12T01:55:30.093Z,51.53
2018-12-12T01:58:03.411Z,50.60
2018-12-12T02:00:34.329Z,51.17
2018-12-12T02:03:04.737Z,64.87
2018-12-12T02:05:34.523Z,43.83
2018-12-12T02:08:05.090Z,61.13
2018-12-12T02:10:36.182Z,49.87
2018-12-12T02:13:18.623Z,129.97
2018-12-12T02:15:48.609Z,63.53
2018-12-12T02:18:18.411Z,52.50
2018-12-12T02:20:48.542Z,47.50
2018-12-12T02:23:18.413Z,61.93
2018-12-12T02:25:48.337Z,57.33
2018-12-12T02:28:18.178Z,49.67
2018-12-12T02:30:47.787Z,56.70
2018-12-12T02:33:18.121Z,56.70
2018-12-12T02:35:48.463Z,77.17
2018-12-12T02:38:18.590Z,54.73
2018-12-12T02:40:48.320Z,42.00
2018-12-12T02:43:18.042Z,56.00
2018-12-12T02:45:47.794Z,68.13
2018-12-12T02:48:17.572Z,55.70
2018-12-12T02:50:47.586Z,43.47
2018-12-12T02:53:18.190Z,60.10
2018-12-12T02:55:48.663Z,73.60
2018-12-12T02:58:18.360Z,47.37
2018-12-12T03:00:48.017Z,52.73
2018-12-12T03:03:17.858Z,50.47
2018-12-12T03:05:48.209Z,56.50
2018-12-12T03:08:17.972Z,47.53
2018-12-12T03:10:47.953Z,49.50
2018-12-12T03:13:17.464Z,70.17
2018-12-12T03:15:47.656Z,64.13
2018-12-12T03:18:19.032Z,45.00
2018-12-12T03:20:48.664Z,60.60
2018-12-12T03:23:18.413Z,58.57
2018-12-12T03:25:48.225Z,63.20
2018-12-12T03:28:18.753Z,48.00
2018-12-12T03:30:48.419Z,54.00
2018-12-12T03:33:18.797Z,51.37
2018-12-12T03:35:48.576Z,68.67
2018-12-12T03:38:18.329Z,56.77
2018-12-12T03:40:53.556Z,65.30
2018-12-12T03:43:24.422Z,52.30
2018-12-12T03:45:54.593Z,58.17
2018-12-12T03:48:24.204Z,64.57
2018-12-12T03:50:53.738Z,56.00
2018-12-12T03:53:23.392Z,67.13
2018-12-12T03:55:53.131Z,60.07
2018-12-12T03:58:22.638Z,67.00
2018-12-12T04:00:52.201Z,72.20
2018-12-12T04:03:21.907Z,59.63
2018-12-12T04:05:52.292Z,67.63
2018-12-12T04:08:21.793Z,60.40
2018-12-12T04:10:51.505Z,60.60
2018-12-12T04:13:21.352Z,74.47
2018-12-12T04:15:51.662Z,72.93
2018-12-12T04:18:21.387Z,77.93
2018-12-12T04:20:50.928Z,63.60
2018-12-12T04:23:20.515Z,84.60
2018-12-12T04:25:50.023Z,50.17
2018-12-12T04:28:19.987Z,64.20
2018-12-12T04:30:49.570Z,63.90
2018-12-12T04:33:19.274Z,61.43
2018-12-12T04:35:48.752Z,59.20
2018-12-12T04:38:18.314Z,66.30
2018-12-12T04:40:48.221Z,72.77
2018-12-12T04:43:17.831Z,73.30
2018-12-12T04:45:48.796Z,64.07
2018-12-12T04:48:19.049Z,72.03
2018-12-12T04:50:48.584Z,67.87
2018-12-12T04:53:19.575Z,57.83
2018-12-12T04:55:49.189Z,70.30
2018-12-12T04:58:18.761Z,58.23
2018-12-12T05:00:48.337Z,63.63
2018-12-12T05:03:17.894Z,81.60
2018-12-12T05:05:48.124Z,66.53
2018-12-12T05:08:17.681Z,61.20
2018-12-12T05:10:48.271Z,54.80
2018-12-12T05:13:18.209Z,71.10
2018-12-12T05:15:48.132Z,54.57
2018-12-12T05:18:18.045Z,52.47
2018-12-12T05:20:47.769Z,51.53
2018-12-12T05:23:17.365Z,55.73
2018-12-12T05:25:47.410Z,60.40
2018-12-12T05:28:16.948Z,55.80
2018-12-12T05:30:46.751Z,60.50
2018-12-12T05:33:16.236Z,67.80
2018-12-12T05:35:45.718Z,65.17
2018-12-12T05:38:15.462Z,78.13
2018-12-12T05:40:45.353Z,71.27
2018-12-12T05:43:14.856Z,75.20
2018-12-12T05:45:44.652Z,63.23
2018-12-12T05:48:14.060Z,55.63
2018-12-12T05:50:43.685Z,87.43
2018-12-12T05:53:13.541Z,73.83
2018-12-12T05:55:43.514Z,65.43
2018-12-12T05:58:13.787Z,58.77
2018-12-12T06:00:43.384Z,95.40
2018-12-12T06:03:14.629Z,75.73
2018-12-12T06:05:45.074Z,64.03
2018-12-12T06:08:15.748Z,65.37
2018-12-12T06:10:46.680Z,61.03
2018-12-12T06:13:17.069Z,71.63
2018-12-12T06:15:46.932Z,84.87
2018-12-12T06:18:16.885Z,84.33
2018-12-12T06:20:47.831Z,63.50
2018-12-12T06:23:20.401Z,63.87
2018-12-12T06:25:51.034Z,64.33
2018-12-12T06:28:20.677Z,63.47
2018-12-12T06:30:50.930Z,75.57
2018-12-12T06:33:21.809Z,66.23
2018-12-12T06:35:52.080Z,83.90
2018-12-12T06:38:21.645Z,70.97
2018-12-12T06:40:51.416Z,61.40
2018-12-12T06:43:21.017Z,57.23
2018-12-12T06:45:50.526Z,67.83
2018-12-12T06:48:20.432Z,53.77
2018-12-12T06:50:50.292Z,55.40
2018-12-12T06:53:20.552Z,58.70
2018-12-12T06:55:50.689Z,59.50
2018-12-12T06:58:20.475Z,63.47
2018-12-12T07:00:50.321Z,54.40
2018-12-12T07:03:22.002Z,52.97
2018-12-12T07:05:54.087Z,52.57
2018-12-12T07:08:24.285Z,67.10
2018-12-12T07:10:54.007Z,67.50
2018-12-12T07:13:24.800Z,40.83
2018-12-12T07:15:54.503Z,56.77
2018-12-12T07:18:24.983Z,44.60
2018-12-12T07:20:54.811Z,90.90
2018-12-12T07:23:24.521Z,49.63
2018-12-12T07:25:54.158Z,42.43
2018-12-12T07:28:24.195Z,42.90
2018-12-12T07:30:53.964Z,29.40
2018-12-12T07:33:23.671Z,40.30
2018-12-12T07:35:59.315Z,45.10
2018-12-12T07:38:25.330Z,39.60
2018-12-12T07:40:55.146Z,42.30
2018-12-12T07:43:25.631Z,40.13
2018-12-12T07:45:55.377Z,35.53
2018-12-12T07:48:26.009Z,39.47
2018-12-12T07:50:55.702Z,33.57
2018-12-12T07:53:25.361Z,47.10
2018-12-12T07:55:55.123Z,58.77
2018-12-12T07:58:24.960Z,80.23
2018-12-12T08:00:55.324Z,43.40
2018-12-12T08:03:30.290Z,74.30
2018-12-12T08:06:00.396Z,45.50
2018-12-12T08:08:30.306Z,39.17
2018-12-12T08:11:00.528Z,42.10
2018-12-12T08:13:30.602Z,47.73
2018-12-12T08:16:00.776Z,51.53
2018-12-12T08:18:30.729Z,43.70
2018-12-12T08:21:00.628Z,149.80
2018-12-12T08:23:30.880Z,77.00
2018-12-12T08:26:01.034Z,65.70
2018-12-12T08:28:30.797Z,49.57
2018-12-12T08:31:00.501Z,102.97
2018-12-12T08:33:30.318Z,54.00
2018-12-12T08:36:00.523Z,49.77
2018-12-12T08:38:30.579Z,66.50
2018-12-12T08:41:02.155Z,71.77
2018-12-12T08:43:32.296Z,44.50
2018-12-12T08:46:04.020Z,59.77
2018-12-12T08:48:34.907Z,55.07
2018-12-12T08:51:05.314Z,56.37
2018-12-12T08:53:40.015Z,44.33
2018-12-12T08:56:09.714Z,50.20
2018-12-12T08:58:39.515Z,45.90
2018-12-12T09:01:11.331Z,50.00
2018-12-12T09:03:41.781Z,56.30
2018-12-12T09:06:15.283Z,57.70
2018-12-12T09:08:47.361Z,58.30
2018-12-12T09:11:18.765Z,47.17
2018-12-12T09:13:49.270Z,41.13
2018-12-12T09:16:20.305Z,45.40
2018-12-12T09:18:54.785Z,46.30
2018-12-12T09:21:25.438Z,48.27
2018-12-12T09:23:59.090Z,53.50
2018-12-12T09:26:30.268Z,42.00
2018-12-12T09:28:59.988Z,46.10
2018-12-12T09:31:29.934Z,40.73
2018-12-12T09:33:59.697Z,51.60
2018-12-12T09:36:30.334Z,44.67
2018-12-12T09:39:01.701Z,41.07
2018-12-12T09:41:31.759Z,39.50
2018-12-12T09:44:01.949Z,61.23
2018-12-12T09:46:32.793Z,36.70
2018-12-12T09:49:03.202Z,37.63
2018-12-12T09:51:33.319Z,40.87
2018-12-12T09:54:05.826Z,53.80
2018-12-12T09:56:35.925Z,48.73
2018-12-12T09:59:12.796Z,41.50
2018-12-12T10:01:44.381Z,41.93
2018-12-12T10:04:15.318Z,43.23
2018-12-12T10:06:45.012Z,58.43
2018-12-12T10:09:15.644Z,57.53
2018-12-12T10:11:51.495Z,43.13
2018-12-12T10:14:21.602Z,75.30
2018-12-12T10:16:53.600Z,35.37
2018-12-12T10:19:26.500Z,54.80
2018-12-12T10:21:56.835Z,38.73
2018-12-12T10:24:29.021Z,38.63
2018-12-12T10:26:59.521Z,34.37
2018-12-12T10:29:33.673Z,36.70
2018-12-12T10:32:03.555Z,44.00
2018-12-12T10:34:36.778Z,39.90
2018-12-12T10:37:07.378Z,37.40
2018-12-12T10:39:38.720Z,36.07
2018-12-12T10:42:09.169Z,30.50
2018-12-12T10:44:40.362Z,29.13
2018-12-12T10:47:14.195Z,22.00
2018-12-12T10:49:47.767Z,29.70
2018-12-12T10:52:18.925Z,48.13
2018-12-12T10:54:49.786Z,32.70
2018-12-12T10:57:21.510Z,40.13
2018-12-12T10:59:57.432Z,40.87
2018-12-12T11:02:33.049Z,34.43
2018-12-12T11:05:07.122Z,27.90
2018-12-12T11:07:42.983Z,49.27
2018-12-12T11:10:15.199Z,57.50
2018-12-12T11:12:50.734Z,34.47
2018-12-12T11:15:25.726Z,26.60
2018-12-12T11:18:04.676Z,64.10
2018-12-12T11:20:54.903Z,27.67
2018-12-12T11:24:12.177Z,32.40
2018-12-12T11:26:54.270Z,25.63
2018-12-12T11:29:26.861Z,23.77
2018-12-12T11:32:03.232Z,14.23
2018-12-12T11:34:35.806Z,18.90
2018-12-12T11:37:12.927Z,50.37
2018-12-12T11:39:45.278Z,25.87
2018-12-12T11:42:18.752Z,34.67
2018-12-12T11:44:51.033Z,20.47
2018-12-12T11:47:28.206Z,17.17
2018-12-12T11:50:02.834Z,11.20
2018-12-12T11:52:35.613Z,14.00
2018-12-12T11:55:11.022Z,18.97
2018-12-12T11:57:50.837Z,14.43
2018-12-12T12:00:22.877Z,27.03
2018-12-12T12:02:54.143Z,12.40
2018-12-12T12:05:29.683Z,15.37
2018-12-12T12:07:59.898Z,16.23
2018-12-12T12:10:31.502Z,15.03
2018-12-12T12:13:06.912Z,11.90
2018-12-12T12:15:37.307Z,13.90
2018-12-12T12:18:14.302Z,11.33
2018-12-12T12:20:44.131Z,47.77
2018-12-12T12:23:15.905Z,122.40
2018-12-12T12:25:46.294Z,19.67
2018-12-12T12:28:17.852Z,13.60
2018-12-12T12:30:49.363Z,13.10
2018-12-12T12:33:19.283Z,16.10
2018-12-12T12:35:49.775Z,15.70
2018-12-12T12:38:20.357Z,15.50
2018-12-12T12:40:52.442Z,20.00
2018-12-12T12:43:24.421Z,13.43
2018-12-12T12:45:55.313Z,30.27
2018-12-12T12:48:25.890Z,15.03
2018-12-12T12:50:57.415Z,13.17
2018-12-12T12:53:28.311Z,8.10
2018-12-12T12:55:59.384Z,14.17
2018-12-12T12:58:29.409Z,12.30
2018-12-12T13:00:59.350Z,11.73
2018-12-12T13:03:29.430Z,24.80
2018-12-12T13:06:01.073Z,16.70
2018-12-12T13:08:35.700Z,19.20
2018-12-12T13:11:07.290Z,9.00
2018-12-12T13:13:37.739Z,8.33
2018-12-12T13:16:08.390Z,16.23
2018-12-12T13:18:38.921Z,13.20
2018-12-12T13:21:09.548Z,19.13
2018-12-12T13:23:40.838Z,20.47
2018-12-12T13:26:11.023Z,15.53
2018-12-12T13:28:42.414Z,13.77
2018-12-12T13:31:12.360Z,17.50
2018-12-12T13:33:44.882Z,16.77
2018-12-12T13:36:17.910Z,24.10
2018-12-12T13:38:48.927Z,18.30
2018-12-12T13:41:19.278Z,25.87
2018-12-12T13:43:50.551Z,14.50
2018-12-12T13:46:22.057Z,10.63
2018-12-12T13:51:33.600Z,16.60
2018-12-12T13:54:04.109Z,21.40
2018-12-12T13:56:37.288Z,19.00
2018-12-12T13:59:09.449Z,13.80
2018-12-12T14:01:40.310Z,44.47
2018-12-12T14:04:12.405Z,22.30
2018-12-12T14:06:44.434Z,11.83
2018-12-12T14:09:18.212Z,7.60
2018-12-12T14:11:50.294Z,6.97
2018-12-12T14:14:21.750Z,8.00
2018-12-12T14:16:56.913Z,12.83
2018-12-12T14:19:27.437Z,10.80
2018-12-12T14:21:58.559Z,12.00
2018-12-12T14:24:30.442Z,16.40
2018-12-12T14:27:06.940Z,8.03
2018-12-12T14:29:46.503Z,7.93
2018-12-12T14:32:17.107Z,12.37
2018-12-12T14:34:48.796Z,22.40
2018-12-12T14:37:20.897Z,28.03
2018-12-12T14:39:59.997Z,11.60
2018-12-12T14:42:33.915Z,11.83
2018-12-12T14:45:05.126Z,14.13
2018-12-12T14:47:39.068Z,13.17
2018-12-12T14:50:12.558Z,13.77
2018-12-12T14:52:43.039Z,11.07
2018-12-12T14:55:16.608Z,24.37
2018-12-12T14:57:47.005Z,17.47
2018-12-12T15:00:27.832Z,14.77
2018-12-12T15:03:02.582Z,31.60
2018-12-12T15:05:33.868Z,34.40
2018-12-12T15:08:06.683Z,10.00
2018-12-12T15:10:48.443Z,22.53
2018-12-12T15:13:26.510Z,16.90
2018-12-12T15:16:04.629Z,20.37
2018-12-12T15:18:37.505Z,14.67
2018-12-12T15:21:08.257Z,24.97
2018-12-12T15:23:48.618Z,13.33
2018-12-12T15:26:26.380Z,18.83
2018-12-12T15:29:02.933Z,11.00
2018-12-12T15:31:34.658Z,14.60
2018-12-12T15:34:06.202Z,21.33
2018-12-12T15:36:41.771Z,15.17
2018-12-12T15:39:15.290Z,19.03
2018-12-12T15:41:45.937Z,15.60
2018-12-12T15:44:18.213Z,25.80
2018-12-12T15:46:51.509Z,38.83
2018-12-12T15:49:27.721Z,14.83
2018-12-12T15:52:06.035Z,24.70
2018-12-12T15:54:44.669Z,23.40
2018-12-12T15:57:24.964Z,30.53
2018-12-12T15:59:56.685Z,31.13
2018-12-12T16:02:27.530Z,16.37
2018-12-12T16:04:59.924Z,23.37
2018-12-12T16:07:31.034Z,29.77
2018-12-12T16:10:01.869Z,20.53
2018-12-12T16:12:36.342Z,26.80
2018-12-12T16:15:20.542Z,27.63
2018-12-12T16:17:56.374Z,13.80
2018-12-12T16:20:28.654Z,21.03
2018-12-12T16:23:00.558Z,22.73
2018-12-12T16:25:36.798Z,18.83
2018-12-12T16:28:13.847Z,12.57
2018-12-12T16:30:45.573Z,16.37
2018-12-12T16:33:16.340Z,21.23
2018-12-12T16:35:48.941Z,55.83
2018-12-12T16:38:19.823Z,16.97
2018-12-12T16:40:52.788Z,18.47
2018-12-12T16:43:24.825Z,23.67
2018-12-12T16:45:58.406Z,20.47
2018-12-12T16:48:34.482Z,27.57
2018-12-12T16:51:13.654Z,20.47
2018-12-12T16:53:55.957Z,18.50
2018-12-12T16:56:27.977Z,44.43
2018-12-12T16:59:07.224Z,29.73
2018-12-12T17:01:45.069Z,67.40
2018-12-12T17:04:19.484Z,26.63
2018-12-12T17:06:56.195Z,21.30
2018-12-12T17:09:42.985Z,23.50
2018-12-12T17:12:19.156Z,32.27
2018-12-12T17:14:54.824Z,24.53
2018-12-12T17:17:27.739Z,24.13
2018-12-12T17:20:00.369Z,32.37
2018-12-12T17:25:41.937Z,38.30
2018-12-12T17:28:16.810Z,29.73
2018-12-12T17:30:56.481Z,18.10
2018-12-12T17:33:31.298Z,37.97
2018-12-12T17:36:05.440Z,48.77
2018-12-12T17:38:39.514Z,26.13
2018-12-12T17:41:11.626Z,25.10
2018-12-12T17:43:45.186Z,20.73
2018-12-12T17:46:17.263Z,20.90
2018-12-12T17:48:52.576Z,22.53
2018-12-12T17:51:25.474Z,27.90
2018-12-12T17:53:58.415Z,21.60
2018-12-12T17:56:32.693Z,52.77
2018-12-12T17:59:05.731Z,22.37
2018-12-12T18:01:46.459Z,18.27
2018-12-12T18:04:19.283Z,26.10
2018-12-12T18:07:00.951Z,17.77
2018-12-12T18:09:34.827Z,29.10
2018-12-12T18:12:17.202Z,28.67
2018-12-12T18:15:00.128Z,22.13
2018-12-12T18:17:41.895Z,22.03
2018-12-12T18:20:16.755Z,23.37
2018-12-12T18:22:47.818Z,16.43
2018-12-12T18:25:21.223Z,27.43
2018-12-12T18:27:52.473Z,18.93
2018-12-12T18:30:28.774Z,16.13
2018-12-12T18:33:09.312Z,23.67
2018-12-12T18:35:41.604Z,25.00
2018-12-12T18:38:12.417Z,18.67
2018-12-12T18:40:43.177Z,23.27
2018-12-12T18:43:19.126Z,29.83
2018-12-12T18:45:52.092Z,20.13
2018-12-12T18:48:22.831Z,19.63
2018-12-12T18:51:05.586Z,23.20
2018-12-12T18:53:43.767Z,21.03
2018-12-12T18:56:16.474Z,17.30
2018-12-12T18:58:46.352Z,16.23
2018-12-12T19:01:27.510Z,17.37
2018-12-12T19:04:06.483Z,16.10
2018-12-12T19:06:39.039Z,19.60
2018-12-12T19:09:09.910Z,15.40
2018-12-12T19:11:45.968Z,19.07
2018-12-12T19:14:19.516Z,95.83
2018-12-12T19:16:51.120Z,19.90
2018-12-12T19:19:21.888Z,24.43
2018-12-12T19:21:59.426Z,15.90
2018-12-12T19:24:32.314Z,16.00
2018-12-12T19:27:03.802Z,15.97
2018-12-12T19:29:35.636Z,23.63
2018-12-12T19:32:08.793Z,14.10
2018-12-12T19:34:51.658Z,24.80
2018-12-12T19:37:33.439Z,17.90
2018-12-12T19:40:11.367Z,17.17
2018-12-12T19:42:49.701Z,16.77
2018-12-12T19:45:23.681Z,114.00
2018-12-12T19:47:55.185Z,51.50
2018-12-12T19:50:28.285Z,21.53
2018-12-12T19:52:59.508Z,24.10
2018-12-12T19:55:39.521Z,23.70
2018-12-12T19:58:12.369Z,17.57
2018-12-12T20:00:58.020Z,13.30
2018-12-12T20:03:28.851Z,12.63
2018-12-12T20:06:03.920Z,29.27
2018-12-12T20:08:49.974Z,14.20
2018-12-12T20:11:25.527Z,12.60
2018-12-12T20:14:03.062Z,15.87
2018-12-12T20:16:36.532Z,12.70
2018-12-12T20:19:10.075Z,12.70
2018-12-12T20:21:45.756Z,14.18
2018-12-12T20:24:26.343Z,12.87
2018-12-12T20:26:57.460Z,13.60
2018-12-12T20:29:39.007Z,16.80
2018-12-12T20:32:15.229Z,12.33
2018-12-12T20:34:50.539Z,14.60
2018-12-12T20:37:29.467Z,11.93
2018-12-12T20:40:05.540Z,11.37
2018-12-12T20:42:42.164Z,15.70
2018-12-12T20:45:15.973Z,15.10
2018-12-12T20:48:00.673Z,10.70
2018-12-12T20:50:39.796Z,20.23
2018-12-12T20:53:12.258Z,13.53
2018-12-12T20:55:43.379Z,20.20
2018-12-12T20:58:13.713Z,11.03
2018-12-12T21:00:46.839Z,16.93
2018-12-12T21:03:21.214Z,17.83
2018-12-12T21:05:54.642Z,21.23
2018-12-12T21:08:32.523Z,52.20
2018-12-12T21:11:06.443Z,32.77
2018-12-12T21:13:43.567Z,19.87
2018-12-12T21:16:20.442Z,19.40
2018-12-12T21:19:00.598Z,23.37
2018-12-12T21:21:32.646Z,18.20
2018-12-12T21:24:07.616Z,18.53
2018-12-12T21:26:38.243Z,18.80
2018-12-12T21:29:11.977Z,20.80
2018-12-12T21:31:47.371Z,15.23
2018-12-12T21:34:22.496Z,20.23
2018-12-12T21:36:53.752Z,21.50
2018-12-12T21:39:33.389Z,19.80
2018-12-12T21:42:12.669Z,22.17
2018-12-12T21:45:20.291Z,22.53
2018-12-12T21:47:51.979Z,42.37
2018-12-12T21:50:21.999Z,21.80
2018-12-12T21:53:01.900Z,18.87
2018-12-12T21:55:45.282Z,23.80
2018-12-12T21:58:15.691Z,23.93
2018-12-12T22:00:48.159Z,16.93
2018-12-12T22:03:18.872Z,18.83
2018-12-12T22:05:49.151Z,20.60
2018-12-12T22:08:19.851Z,22.03
2018-12-12T22:10:52.891Z,31.80
2018-12-12T22:13:25.911Z,26.33
2018-12-12T22:15:58.224Z,32.03
2018-12-12T22:18:28.884Z,24.13
2018-12-12T22:21:00.152Z,18.30
2018-12-12T22:23:30.508Z,18.20
2018-12-12T22:26:01.415Z,17.67
2018-12-12T22:28:31.609Z,23.03
2018-12-12T22:31:07.704Z,16.90
2018-12-12T22:33:37.873Z,40.27
2018-12-12T22:36:13.947Z,48.43
2018-12-12T22:38:40.105Z,35.70
2018-12-12T22:41:10.637Z,17.30
2018-12-12T22:43:42.244Z,19.20
2018-12-12T22:46:24.591Z,23.53
2018-12-12T22:49:03.602Z,23.13
2018-12-12T22:51:35.736Z,24.73
2018-12-12T23:52:26.510Z,18.50
2018-12-12T23:55:01.694Z,38.37
2018-12-12T23:57:35.622Z,25.43
